Time;durP1;ratioP1;P1;durP2;ratioP2;P2;SDS_P1;SDS_P2;PMS_P1;PMS_P2;Temp;Humidity;BMP_temperature;BMP_pressure;BME280_temperature;BME280_humidity;BME280_pressure;Samples;Min_cycle;Max_cycle;Signal;HPM_P1;HPM_P2
2023/02/10 00:01:09;;;;;;;20.17;10.52;;;12.90;2201.60;;;;;;5040043;28;20037;-76
2023/02/10 00:03:35;;;;;;;17.70;8.70;;;13.00;2201.60;;;;;;5043226;28;20036;-75
2023/02/10 00:06:01;;;;;;;;;;;13.20;2201.60;;;;;;5050753;28;20465;-77
2023/02/10 00:08:27;;;;;;;19.50;9.32;;;13.30;2201.60;;;;;;5076648;28;19912;-76
2023/02/10 00:10:58;;;;;;;18.60;8.68;;;13.30;2201.60;;;;;;5073111;28;20025;-76
2023/02/10 00:13:24;;;;;;;25.35;11.10;;;13.30;2201.60;;;;;;5044779;28;20175;-77
2023/02/10 00:15:50;;;;;;;21.17;10.13;;;13.30;2201.60;;;;;;5050724;28;20034;-77
2023/02/10 00:18:16;;;;;;;;;;;13.20;2201.60;;;;;;5044396;28;20040;-78
2023/02/10 00:20:42;;;;;;;18.40;9.10;;;13.30;2201.60;;;;;;5030843;28;19984;-77
2023/02/10 00:23:07;;;;;;;;;;;13.40;2201.60;;;;;;5035984;28;20030;-76
2023/02/10 00:25:35;;;;;;;21.52;8.80;;;13.30;2201.60;;;;;;5040732;28;20398;-76
2023/02/10 00:28:01;;;;;;;18.45;9.18;;;13.40;2201.60;;;;;;5036175;28;20029;-77
2023/02/10 00:30:26;;;;;;;;;;;13.40;2201.60;;;;;;5042571;28;20608;-77
2023/02/10 00:32:52;;;;;;;19.42;9.25;;;13.50;2201.60;;;;;;5039059;28;20350;-76
2023/02/10 00:35:18;;;;;;;;;;;13.50;2201.60;;;;;;5047174;28;20490;-76
2023/02/10 00:37:43;;;;;;;20.75;8.40;;;13.40;2201.60;;;;;;5038921;28;19944;-77
2023/02/10 00:40:09;;;;;;;;;;;13.50;2201.60;;;;;;5051313;28;20052;-78
2023/02/10 00:42:35;;;;;;;22.65;9.10;;;13.50;2201.60;;;;;;5040847;28;20008;-77
2023/02/10 00:45:00;;;;;;;;;;;13.50;2201.60;;;;;;5049170;28;20059;-76
2023/02/10 00:47:26;;;;;;;20.70;9.57;;;13.50;2201.60;;;;;;5056115;28;19930;-76
2023/02/10 00:49:52;;;;;;;;;;;13.50;2201.60;;;;;;5057889;28;20074;-78
2023/02/10 00:52:18;;;;;;;21.77;9.32;;;13.70;2201.60;;;;;;5057144;28;19904;-76
2023/02/10 00:54:43;;;;;;;;;;;38.50;2201.60;;;;;;5044612;28;20021;-77
2023/02/10 00:57:09;;;;;;;19.17;9.43;;;38.40;2201.60;;;;;;5044837;28;19970;-80
2023/02/10 00:59:35;;;;;;;;;;;38.40;2201.60;;;;;;5054630;28;20044;-80
2023/02/10 01:02:00;;;;;;;19.70;8.25;;;38.50;2201.60;;;;;;5036343;28;20285;-79
2023/02/10 01:04:26;;;;;;;;;;;38.40;2201.60;;;;;;5043584;28;20104;-76
2023/02/10 01:06:52;;;;;;;17.60;8.63;;;38.50;2201.60;;;;;;5053877;28;19905;-77
2023/02/10 01:09:17;;;;;;;;;;;38.70;2201.60;;;;;;5047712;28;20125;-77
2023/02/10 01:11:44;;;;;;;22.38;8.02;;;38.80;2201.60;;;;;;5046168;28;19915;-76
2023/02/10 01:14:10;;;;;;;21.35;9.80;;;38.70;2201.60;;;;;;5032662;28;20021;-77
2023/02/10 01:16:35;;;;;;;;;;;38.60;2201.60;;;;;;5043498;28;20076;-76
2023/02/10 01:19:01;;;;;;;19.50;9.07;;;38.50;2201.60;;;;;;5051361;28;19908;-77
2023/02/10 01:21:27;;;;;;;;;;;38.50;2201.60;;;;;;5024551;28;20029;-77
2023/02/10 01:23:52;;;;;;;22.02;10.05;;;13.70;2201.60;;;;;;5026014;28;20267;-77
2023/02/10 01:26:18;;;;;;;;;;;13.70;2201.60;;;;;;5031734;28;20029;-77
2023/02/10 01:28:44;;;;;;;20.30;8.48;;;13.70;2201.60;;;;;;5033650;28;19905;-78
2023/02/10 01:31:16;;;;;;;;;;;13.70;2201.60;;;;;;5039586;28;20022;-77
2023/02/10 01:33:42;;;;;;;21.58;9.32;;;13.70;2201.60;;;;;;5044420;28;20354;-76
2023/02/10 01:36:09;;;;;;;;;;;38.60;2201.60;;;;;;5038350;28;20040;-76
2023/02/10 01:38:35;;;;;;;17.20;7.90;;;38.70;2201.60;;;;;;5040840;28;19912;-77
2023/02/10 01:41:02;;;;;;;;;;;38.70;2201.60;;;;;;5055592;28;20128;-75
2023/02/10 01:43:27;;;;;;;15.73;6.77;;;38.70;2201.60;;;;;;5051597;28;20267;-78
2023/02/10 01:45:53;;;;;;;;;;;38.70;2201.60;;;;;;5049538;28;20158;-77
2023/02/10 01:48:20;;;;;;;22.33;8.85;;;38.70;2201.60;;;;;;5035239;28;20313;-76
2023/02/10 01:51:04;;;;;;;18.23;9.25;;;38.70;2201.60;;;;;;5029957;28;20156;-77
2023/02/10 01:53:30;;;;;;;24.80;10.02;;;38.60;2201.60;;;;;;5042793;28;20398;-77
2023/02/10 01:55:57;;;;;;;23.15;8.98;;;38.70;2201.60;;;;;;5035213;28;20025;-77
2023/02/10 01:58:27;;;;;;;23.83;9.70;;;38.60;2201.60;;;;;;5038340;28;20032;-77
2023/02/10 02:00:53;;;;;;;25.65;9.32;;;38.50;2201.60;;;;;;5050910;28;20037;-75
2023/02/10 02:03:18;;;;;;;;;;;38.50;2201.60;;;;;;5039010;28;20433;-78
2023/02/10 02:05:45;;;;;;;20.83;9.13;;;38.50;2201.60;;;;;;5038130;28;19948;-77
2023/02/10 02:08:18;;;;;;;20.30;9.70;;;38.70;2201.60;;;;;;5038363;28;20013;-77
2023/02/10 02:11:03;;;;;;;20.77;9.00;;;38.80;2201.60;;;;;;5054656;28;20029;-79
2023/02/10 02:13:28;;;;;;;21.10;8.85;;;38.80;2201.60;;;;;;5030434;28;20033;-76
2023/02/10 02:16:18;;;;;;;;;;;38.70;2201.60;;;;;;5054536;28;20509;-77
2023/02/10 02:19:22;;;;;;;21.10;8.93;;;38.80;2201.60;;;;;;5054305;28;19955;-77
2023/02/10 02:22:17;;;;;;;21.13;10.02;;;38.90;2201.60;;;;;;4975043;28;20026;-77
2023/02/10 02:24:58;;;;;;;21.65;9.30;;;38.90;2201.60;;;;;;4974717;28;20026;-76
2023/02/10 02:27:45;;;;;;;24.45;10.27;;;39.00;2201.60;;;;;;4974752;28;20566;-77
2023/02/10 02:30:46;;;;;;;20.70;8.45;;;38.90;2201.60;;;;;;4966606;28;20027;-77
2023/02/10 02:33:19;;;;;;;21.85;10.40;;;38.80;2201.60;;;;;;4974809;28;20050;-83
2023/02/10 02:36:11;;;;;;;21.95;9.82;;;38.80;2201.60;;;;;;4974514;28;20019;-77
2023/02/10 02:38:41;;;;;;;24.73;10.20;;;38.70;2201.60;;;;;;4900898;29;20044;-77
2023/02/10 02:41:08;;;;;;;26.17;10.93;;;38.80;2201.60;;;;;;4901260;29;20052;-78
2023/02/10 02:43:34;;;;;;;23.55;11.13;;;38.80;2201.60;;;;;;4901296;29;20083;-80
2023/02/10 02:46:44;;;;;;;24.98;12.15;;;38.80;2201.60;;;;;;4901023;29;20136;-77
2023/02/10 02:49:25;;;;;;;24.67;9.57;;;38.80;2201.60;;;;;;4860167;29;20041;-77
2023/02/10 02:51:54;;;;;;;26.40;10.50;;;38.90;2201.60;;;;;;4861120;29;20037;-76
2023/02/10 02:54:35;;;;;;;22.23;9.50;;;39.00;2201.60;;;;;;4860566;29;20526;-76
2023/02/10 02:57:15;;;;;;;23.02;9.95;;;39.10;2201.60;;;;;;4860568;29;20041;-78
2023/02/10 02:59:49;;;;;;;27.35;10.63;;;39.10;2201.60;;;;;;4880735;29;20460;-79
2023/02/10 03:02:19;;;;;;;22.45;10.48;;;38.90;2201.60;;;;;;4883723;29;20051;-77
2023/02/10 03:04:45;;;;;;;20.80;10.02;;;38.90;2201.60;;;;;;4891869;29;20032;-77
2023/02/10 03:07:11;;;;;;;21.08;9.43;;;39.00;2201.60;;;;;;4881931;29;20043;-77
2023/02/10 03:09:37;;;;;;;;;;;39.00;2201.60;;;;;;4906573;29;20127;-77
2023/02/10 03:12:03;;;;;;;22.27;10.20;;;38.90;2201.60;;;;;;4916029;29;20025;-77
2023/02/10 03:14:29;;;;;;;;;;;39.20;2201.60;;;;;;4894503;29;20471;-78
2023/02/10 03:16:54;;;;;;;22.65;10.05;;;39.10;2201.60;;;;;;4949969;29;19945;-77
2023/02/10 03:19:20;;;;;;;;;;;39.00;2201.60;;;;;;4929935;29;20043;-77
2023/02/10 03:21:46;;;;;;;21.85;9.90;;;38.90;2201.60;;;;;;4934272;29;20264;-77
2023/02/10 03:24:13;;;;;;;22.45;9.88;;;38.90;2201.60;;;;;;4953912;29;20045;-82
2023/02/10 03:26:39;;;;;;;22.15;10.20;;;39.00;2201.60;;;;;;5027927;28;20040;-77
2023/02/10 03:29:05;;;;;;;;;;;38.90;2201.60;;;;;;5053723;28;20033;-77
2023/02/10 03:31:32;;;;;;;16.42;7.35;;;38.90;2201.60;;;;;;5053082;28;19952;-81
2023/02/10 03:33:58;;;;;;;23.42;9.82;;;39.00;2201.60;;;;;;5054231;28;20021;-77
2023/02/10 03:36:23;;;;;;;;;;;39.10;2201.60;;;;;;5050001;28;20407;-77
2023/02/10 03:38:49;;;;;;;23.08;9.45;;;39.20;2201.60;;;;;;5052285;28;19911;-79
2023/02/10 03:41:14;;;;;;;;;;;39.10;2201.60;;;;;;5052863;28;20076;-78
2023/02/10 03:43:41;;;;;;;24.25;9.55;;;39.30;2201.60;;;;;;5052740;28;19912;-77
2023/02/10 03:46:08;;;;;;;24.52;8.73;;;39.30;2201.60;;;;;;5052741;28;20025;-83
2023/02/10 03:48:34;;;;;;;23.52;9.48;;;39.30;2201.60;;;;;;5052634;28;20040;-80
2023/02/10 03:51:00;;;;;;;;;;;64.00;2201.60;;;;;;5054216;28;20029;-81
2023/02/10 03:53:26;;;;;;;15.53;7.23;;;64.00;2201.60;;;;;;5052585;28;19904;-81
2023/02/10 03:55:52;;;;;;;22.23;10.02;;;64.10;2201.60;;;;;;5052638;28;20050;-77
2023/02/10 03:58:18;;;;;;;;;;;39.30;2201.60;;;;;;5053223;28;20059;-77
2023/02/10 04:00:43;;;;;;;20.77;9.85;;;39.20;2201.60;;;;;;5051648;28;19954;-78
2023/02/10 04:03:09;;;;;;;;;;;39.20;2201.60;;;;;;5041786;28;20083;-76
2023/02/10 04:05:35;;;;;;;21.52;9.32;;;39.10;2201.60;;;;;;5052480;28;20262;-79
2023/02/10 04:08:00;;;;;;;;;;;39.10;2201.60;;;;;;5053176;28;20027;-76
2023/02/10 04:10:26;;;;;;;31.98;9.75;;;39.10;2201.60;;;;;;5052998;28;20265;-78
2023/02/10 04:12:52;;;;;;;29.67;11.43;;;39.10;2201.60;;;;;;5053804;28;20032;-82
2023/02/10 04:15:18;;;;;;;;;;;39.20;2201.60;;;;;;5040441;28;20429;-80
2023/02/10 04:17:44;;;;;;;23.15;10.50;;;39.20;2201.60;;;;;;5052753;28;19905;-77
2023/02/10 04:20:10;;;;;;;;;;;39.20;2201.60;;;;;;5052419;28;20378;-78
2023/02/10 04:22:36;;;;;;;23.90;10.15;;;39.20;2201.60;;;;;;5045838;28;19909;-78
2023/02/10 04:25:01;;;;;;;;;;;39.10;2201.60;;;;;;5048826;28;20452;-77
2023/02/10 04:27:27;;;;;;;34.25;13.07;;;39.10;2201.60;;;;;;5052294;28;19912;-78
2023/02/10 04:29:52;;;;;;;;;;;39.10;2201.60;;;;;;5052715;28;20029;-79
2023/02/10 04:32:18;;;;;;;32.10;13.07;;;39.10;2201.60;;;;;;5041910;28;19955;-78
2023/02/10 04:34:44;;;;;;;;;;;39.10;2201.60;;;;;;5052667;28;20067;-77
2023/02/10 04:37:09;;;;;;;20.90;10.02;;;39.10;2201.60;;;;;;5045963;28;19955;-78
2023/02/10 04:39:35;;;;;;;;;;;39.30;2201.60;;;;;;5048617;28;20029;-77
2023/02/10 04:42:01;;;;;;;29.25;10.25;;;39.30;2201.60;;;;;;5052287;28;20423;-78
2023/02/10 04:44:26;;;;;;;;;;;39.30;2201.60;;;;;;5051796;28;20143;-79
2023/02/10 04:46:52;;;;;;;23.33;9.93;;;39.30;2201.60;;;;;;5052163;28;19905;-80
2023/02/10 04:49:18;;;;;;;;;;;39.20;2201.60;;;;;;5037910;28;20025;-81
2023/02/10 04:51:44;;;;;;;25.70;10.57;;;39.10;2201.60;;;;;;5030061;28;20328;-78
2023/02/10 04:54:09;;;;;;;;;;;39.30;2201.60;;;;;;5053080;28;20043;-77
2023/02/10 04:56:35;;;;;;;25.85;10.30;;;39.30;2201.60;;;;;;5053389;28;20015;-78
2023/02/10 04:59:00;;;;;;;;;;;64.00;2201.60;;;;;;5053493;28;20051;-78
2023/02/10 05:01:26;;;;;;;23.40;10.00;;;64.20;2201.60;;;;;;5053102;28;20297;-78
2023/02/10 05:03:52;;;;;;;;;;;64.10;2201.60;;;;;;5052193;28;20032;-78
2023/02/10 05:06:17;;;;;;;29.80;9.68;;;64.00;2201.60;;;;;;5040087;28;20286;-78
2023/02/10 05:08:43;;;;;;;;;;;64.10;2201.60;;;;;;5051501;28;20386;-77
2023/02/10 05:11:11;;;;;;;23.85;10.13;;;64.40;2201.60;;;;;;5040677;28;19913;-81
2023/02/10 05:13:37;;;;;;;25.60;10.63;;;64.30;2201.60;;;;;;5055088;28;20509;-78
2023/02/10 05:16:04;;;;;;;25.88;10.40;;;64.10;2201.60;;;;;;5055865;28;20116;-77
2023/02/10 05:18:30;;;;;;;22.42;10.25;;;64.00;2201.60;;;;;;5042676;28;20021;-77
2023/02/10 05:20:57;;;;;;;24.85;10.23;;;64.30;2201.60;;;;;;5045180;28;20108;-78
2023/02/10 05:23:23;;;;;;;24.02;10.40;;;64.30;2201.60;;;;;;5055251;28;20032;-77
2023/02/10 05:25:48;;;;;;;;;;;64.50;2201.60;;;;;;5055693;28;20029;-77
2023/02/10 05:28:14;;;;;;;27.42;11.23;;;64.20;2201.60;;;;;;5054565;28;19911;-80
2023/02/10 05:30:40;;;;;;;;;;;64.70;2201.60;;;;;;5056354;28;20114;-77
2023/02/10 05:33:05;;;;;;;27.88;9.23;;;64.70;2201.60;;;;;;5055116;28;20008;-78
2023/02/10 05:35:31;;;;;;;;;;;64.70;2201.60;;;;;;5049526;28;20466;-79
2023/02/10 05:37:57;;;;;;;24.83;10.07;;;64.40;2201.60;;;;;;5051504;28;19958;-78
2023/02/10 05:40:23;;;;;;;;;;;64.40;2201.60;;;;;;5045303;28;20053;-76
2023/02/10 05:42:49;;;;;;;23.83;10.82;;;64.30;2201.60;;;;;;5056201;28;20007;-78
2023/02/10 05:45:15;;;;;;;25.40;10.98;;;64.40;2201.60;;;;;;5056453;28;20488;-78
2023/02/10 05:47:41;;;;;;;;;;;64.80;2201.60;;;;;;5054977;28;20024;-77
2023/02/10 05:50:07;;;;;;;25.38;10.85;;;89.60;2201.60;;;;;;5049664;28;19933;-82
2023/02/10 05:52:33;;;;;;;28.33;12.10;;;89.90;2176.00;;;;;;5050427;28;20024;-78
2023/02/10 05:54:58;;;;;;;;;;;89.80;2176.00;;;;;;5055050;28;20025;-80
2023/02/10 05:57:24;;;;;;;28.52;11.45;;;90.00;2176.00;;;;;;5056233;28;19905;-78
2023/02/10 05:59:50;;;;;;;;;;;90.10;2176.00;;;;;;5054886;28;20120;-78
2023/02/10 06:02:15;;;;;;;23.02;10.73;;;89.90;2176.00;;;;;;5054838;28;19905;-78
2023/02/10 06:04:41;;;;;;;;;;;64.80;2201.60;;;;;;5054853;28;20359;-78
2023/02/10 06:07:07;;;;;;;28.63;12.27;;;64.80;2201.60;;;;;;5041956;28;19909;-77
2023/02/10 06:09:32;;;;;;;;;;;64.70;2201.60;;;;;;5048358;28;20033;-78
2023/02/10 06:11:58;;;;;;;33.53;12.27;;;64.50;2201.60;;;;;;5038039;28;20324;-78
2023/02/10 06:14:23;;;;;;;;;;;64.40;2201.60;;;;;;5054973;28;20029;-78
2023/02/10 06:16:49;;;;;;;29.27;10.85;;;64.30;2201.60;;;;;;5054087;28;19944;-77
2023/02/10 06:19:15;;;;;;;;;;;64.10;2201.60;;;;;;5054728;28;20063;-78
2023/02/10 06:21:40;;;;;;;29.17;11.73;;;64.10;2201.60;;;;;;5042369;28;19911;-78
2023/02/10 06:24:06;;;;;;;;;;;64.40;2201.60;;;;;;5052400;28;20506;-77
2023/02/10 06:26:31;;;;;;;27.40;11.05;;;64.30;2201.60;;;;;;5042698;28;20255;-77
2023/02/10 06:28:57;;;;;;;;;;;64.50;2201.60;;;;;;5055903;28;20390;-78
2023/02/10 06:31:25;;;;;;;23.75;11.20;;;64.50;2201.60;;;;;;5035682;28;20012;-77
2023/02/10 06:33:50;;;;;;;37.17;15.43;;;64.60;2201.60;;;;;;5035354;28;20040;-77
2023/02/10 06:36:16;;;;;;;;;;;64.50;2201.60;;;;;;5040070;28;20033;-78
2023/02/10 06:38:42;;;;;;;28.98;13.63;;;64.30;2201.60;;;;;;5048943;28;19908;-78
2023/02/10 06:41:08;;;;;;;;;;;64.20;2201.60;;;;;;5048215;28;20045;-80
2023/02/10 06:43:34;;;;;;;30.05;12.23;;;64.40;2201.60;;;;;;5052662;28;19919;-78
2023/02/10 06:45:59;;;;;;;26.70;12.82;;;64.20;2201.60;;;;;;5056795;28;20033;-78
2023/02/10 06:48:26;;;;;;;;;;;64.00;2201.60;;;;;;5049684;28;20108;-77
2023/02/10 06:50:52;;;;;;;24.53;9.37;;;39.20;2201.60;;;;;;5030333;28;20373;-78
2023/02/10 06:53:18;;;;;;;28.80;11.88;;;39.30;2201.60;;;;;;5058156;28;20470;-75
2023/02/10 06:55:44;;;;;;;;;;;39.10;2201.60;;;;;;5036358;28;20029;-81
2023/02/10 06:58:10;;;;;;;29.35;13.27;;;38.90;2201.60;;;;;;5042704;28;19934;-77
2023/02/10 07:00:36;;;;;;;31.70;14.38;;;38.80;2201.60;;;;;;5047336;28;20036;-77
2023/02/10 07:03:02;;;;;;;36.72;14.38;;;38.70;2201.60;;;;;;5040236;28;20025;-76
2023/02/10 07:05:27;;;;;;;;;;;38.40;2201.60;;;;;;5050457;28;20024;-76
2023/02/10 07:07:54;;;;;;;26.50;12.73;;;38.40;2201.60;;;;;;5046689;28;20425;-77
2023/02/10 07:10:21;;;;;;;30.23;14.48;;;38.50;2201.60;;;;;;5044257;28;20467;-78
2023/02/10 07:12:47;;;;;;;31.95;14.80;;;38.50;2201.60;;;;;;5037222;28;20029;-84
2023/02/10 07:15:13;;;;;;;32.45;14.63;;;13.60;2201.60;;;;;;5047731;28;20590;-79
2023/02/10 07:17:39;;;;;;;29.35;13.75;;;13.50;2201.60;;;;;;5046855;28;20040;-79
2023/02/10 07:20:05;;;;;;;;;;;13.60;2201.60;;;;;;5042593;28;20025;-81
2023/02/10 07:22:31;;;;;;;38.53;16.13;;;13.60;2201.60;;;;;;5046290;28;19961;-78
2023/02/10 07:24:56;;;;;;;;;;;13.70;2201.60;;;;;;5040250;28;20097;-77
2023/02/10 07:27:23;;;;;;;32.85;14.90;;;13.60;2201.60;;;;;;5050296;28;20369;-78
2023/02/10 07:29:48;;;;;;;33.10;15.05;;;13.50;2201.60;;;;;;5048762;28;20032;-77
2023/02/10 07:32:14;;;;;;;;;;;13.50;2201.60;;;;;;5040722;28;20035;-77
2023/02/10 07:34:40;;;;;;;31.92;14.00;;;13.50;2201.60;;;;;;5049770;28;19908;-80
2023/02/10 07:37:06;;;;;;;;;;;13.40;2201.60;;;;;;5050558;28;20091;-77
2023/02/10 07:39:32;;;;;;;35.00;14.23;;;13.30;2201.60;;;;;;5051144;28;20001;-79
2023/02/10 07:41:57;;;;;;;;;;;13.30;2201.60;;;;;;5046658;28;20072;-76
2023/02/10 07:44:23;;;;;;;29.92;14.00;;;13.20;2201.60;;;;;;5043498;28;19919;-76
2023/02/10 07:46:51;;;;;;;;;;;13.10;2201.60;;;;;;5062753;28;20036;-77
2023/02/10 07:49:16;;;;;;;35.35;14.02;;;13.00;2201.60;;;;;;5062190;28;19934;-75
2023/02/10 07:51:42;;;;;;;;;;;12.90;2201.60;;;;;;5062829;28;20478;-74
2023/02/10 07:54:08;;;;;;;37.30;15.65;;;0.10;2201.60;;;;;;5060899;28;19909;-75
2023/02/10 07:56:34;;;;;;;;;;;0.20;2201.60;;;;;;5045471;28;20055;-75
2023/02/10 07:58:59;;;;;;;29.20;13.35;;;0.20;2201.60;;;;;;5036712;28;19959;-73
2023/02/10 08:01:25;;;;;;;;;;;0.30;2201.60;;;;;;5061743;28;20028;-75
2023/02/10 08:03:51;;;;;;;54.58;14.98;;;0.40;2201.60;;;;;;5060917;28;19975;-77
2023/02/10 08:06:20;;;;;;;;;;;0.30;2201.60;;;;;;5041899;28;20094;-73
2023/02/10 08:08:46;;;;;;;27.17;12.18;;;0.30;2201.60;;;;;;5045837;28;19911;-75
2023/02/10 08:11:12;;;;;;;;;;;0.30;2201.60;;;;;;5048571;28;20111;-76
2023/02/10 08:13:37;;;;;;;32.83;14.57;;;0.40;2201.60;;;;;;5047032;28;20354;-75
2023/02/10 08:16:07;;;;;;;;;;;0.60;2201.60;;;;;;5045654;28;20036;-76
2023/02/10 08:18:35;;;;;;;28.60;13.50;;;0.60;2201.60;;;;;;5062412;28;19921;-75
2023/02/10 08:21:01;;;;;;;;;;;0.90;2201.60;;;;;;5060783;28;20475;-75
2023/02/10 08:23:27;;;;;;;38.25;15.27;;;25.60;2201.60;;;;;;5047880;28;19916;-75
2023/02/10 08:25:52;;;;;;;;;;;25.70;2201.60;;;;;;5058131;28;20028;-74
2023/02/10 08:28:18;;;;;;;31.98;14.40;;;25.70;2201.60;;;;;;5043513;28;20405;-76
2023/02/10 08:30:44;;;;;;;30.55;14.20;;;25.80;2201.60;;;;;;5054920;28;20056;-77
2023/02/10 08:33:10;;;;;;;;;;;25.90;2201.60;;;;;;5042120;28;20059;-76
2023/02/10 08:35:37;;;;;;;29.58;14.23;;;26.00;2201.60;;;;;;5028023;28;19908;-75
2023/02/10 08:38:03;;;;;;;26.88;12.68;;;25.90;2201.60;;;;;;5043757;28;20082;-76
2023/02/10 08:40:29;;;;;;;28.80;13.23;;;25.90;2201.60;;;;;;5045737;28;20148;-75
2023/02/10 08:42:55;;;;;;;;;;;26.00;2201.60;;;;;;5043947;28;20522;-76
2023/02/10 08:45:21;;;;;;;35.45;14.68;;;26.10;2201.60;;;;;;5037633;28;19905;-78
2023/02/10 08:47:46;;;;;;;;;;;26.10;2201.60;;;;;;5030376;28;20374;-78
2023/02/10 08:50:12;;;;;;;23.85;11.48;;;26.20;2201.60;;;;;;5038965;28;19920;-75
2023/02/10 08:52:38;;;;;;;;;;;26.20;2201.60;;;;;;5050823;28;20067;-77
2023/02/10 08:55:04;;;;;;;31.83;12.38;;;26.20;2201.60;;;;;;5029597;28;19951;-76
2023/02/10 08:57:29;;;;;;;;;;;26.40;2201.60;;;;;;5042795;28;20028;-76
2023/02/10 08:59:55;;;;;;;26.45;12.45;;;26.40;2201.60;;;;;;5030676;28;20262;-75
2023/02/10 09:02:21;;;;;;;;;;;26.40;2201.60;;;;;;5037141;28;20039;-77
2023/02/10 09:04:46;;;;;;;29.27;13.23;;;26.50;2201.60;;;;;;5038963;28;20399;-76
2023/02/10 09:07:13;;;;;;;;;;;26.50;2201.60;;;;;;5035423;28;20028;-76
2023/02/10 09:09:41;;;;;;;31.65;10.82;;;51.20;2227.20;;;;;;5045587;28;19951;-76
2023/02/10 09:12:11;;;;;;;25.25;12.02;;;26.50;2201.60;;;;;;5034856;28;20037;-76
2023/02/10 09:14:40;;;;;;;24.58;12.75;;;26.50;2201.60;;;;;;5039192;28;20470;-78
2023/02/10 09:17:07;;;;;;;29.77;14.25;;;51.30;2227.20;;;;;;5028122;28;20060;-74
2023/02/10 09:19:37;;;;;;;32.05;14.68;;;51.50;2227.20;;;;;;5048946;28;20030;-75
2023/02/10 09:22:04;;;;;;;26.42;12.82;;;51.60;2227.20;;;;;;5047761;28;20021;-77
2023/02/10 09:24:31;;;;;;;33.90;14.15;;;51.80;2227.20;;;;;;5044524;28;20041;-78
2023/02/10 09:26:57;;;;;;;33.45;15.48;;;52.10;2176.00;;;;;;5034795;28;20076;-75
2023/02/10 09:29:22;;;;;;;;;;;76.80;2176.00;;;;;;5033862;28;20112;-79
2023/02/10 09:31:48;;;;;;;34.92;17.20;;;76.90;2176.00;;;;;;5047708;28;19971;-77
2023/02/10 09:34:13;;;;;;;;;;;77.00;2150.40;;;;;;5022926;28;20026;-78
2023/02/10 09:36:39;;;;;;;33.55;14.07;;;77.20;2099.20;;;;;;5031249;28;19915;-78
2023/02/10 09:39:05;;;;;;;;;;;77.10;2099.20;;;;;;5038461;28;20036;-78
2023/02/10 09:41:34;;;;;;;32.55;14.75;;;77.20;2099.20;;;;;;5043790;28;19921;-78
2023/02/10 09:44:15;;;;;;;30.67;14.63;;;77.30;2099.20;;;;;;5050435;28;20044;-77
2023/02/10 09:47:12;;;;;;;36.15;16.38;;;77.60;2048.00;;;;;;5050099;28;20021;-76
2023/02/10 09:49:56;;;;;;;30.80;15.07;;;77.70;1996.80;;;;;;5027333;28;20401;-79
2023/02/10 09:52:45;;;;;;;31.20;15.98;;;102.70;1971.20;;;;;;5047270;28;20025;-76
2023/02/10 09:55:51;;;;;;;28.92;14.10;;;103.00;1894.40;;;;;;5051482;28;20029;-74
2023/02/10 09:58:28;;;;;;;29.35;14.70;;;103.20;1843.20;;;;;;5027349;28;20033;-75
2023/02/10 10:01:18;;;;;;;32.67;15.32;;;103.00;1894.40;;;;;;5041212;28;20029;-78
2023/02/10 10:04:01;;;;;;;33.45;15.35;;;103.10;1894.40;;;;;;5050897;28;20045;-78
2023/02/10 10:06:33;;;;;;;29.40;13.98;;;103.20;1868.80;;;;;;5025621;28;20028;-80
2023/02/10 10:09:08;;;;;;;34.20;16.08;;;128.20;1894.40;;;;;;5040889;28;20040;-76
2023/02/10 10:11:48;;;;;;;28.40;14.02;;;128.00;1868.80;;;;;;5025235;28;20081;-78
2023/02/10 10:14:23;;;;;;;25.35;14.13;;;128.20;1843.20;;;;;;5041611;28;20029;-78
2023/02/10 10:17:07;;;;;;;30.52;13.02;;;128.10;1817.60;;;;;;5058373;28;20033;-76
2023/02/10 10:19:45;;;;;;;26.75;14.30;;;128.20;1843.20;;;;;;5045986;28;20017;-78
2023/02/10 10:22:45;;;;;;;26.63;13.10;;;128.70;1792.00;;;;;;5054086;28;20040;-79
2023/02/10 10:25:29;;;;;;;26.75;13.10;;;153.70;1715.20;;;;;;5041920;28;20045;-76
2023/02/10 10:27:58;;;;;;;28.40;13.90;;;153.90;1689.60;;;;;;5051372;28;20017;-77
2023/02/10 10:30:39;;;;;;;30.63;15.00;;;153.90;1689.60;;;;;;5042117;28;20119;-76
2023/02/10 10:33:30;;;;;;;25.40;13.45;;;153.80;1689.60;;;;;;5050687;28;20024;-75
2023/02/10 10:36:01;;;;;;;25.48;12.70;;;154.10;1664.00;;;;;;5023630;28;20501;-78
2023/02/10 10:38:32;;;;;;;27.98;13.40;;;179.40;1612.80;;;;;;5047561;28;20060;-75
2023/02/10 10:41:03;;;;;;;22.65;12.77;;;179.70;1561.60;;;;;;5045078;28;20056;-76
2023/02/10 10:43:46;;;;;;;25.52;11.43;;;179.70;1561.60;;;;;;5039549;28;20120;-76
2023/02/10 10:46:33;;;;;;;26.17;12.13;;;179.70;1536.00;;;;;;5046392;28;20037;-77
2023/02/10 10:48:59;;;;;;;24.38;12.60;;;180.10;1510.40;;;;;;5027948;28;20026;-78
2023/02/10 10:51:26;;;;;;;24.67;13.73;;;204.90;1484.80;;;;;;5038871;28;20032;-78
2023/02/10 10:53:56;;;;;;;23.98;12.27;;;180.10;1510.40;;;;;;5047883;28;20382;-77
2023/02/10 10:56:33;;;;;;;21.75;11.48;;;205.00;1484.80;;;;;;5043171;28;20062;-79
2023/02/10 10:58:59;;;;;;;24.25;12.75;;;205.40;1459.20;;;;;;5032373;28;20112;-79
2023/02/10 11:01:41;;;;;;;27.83;13.05;;;205.30;1433.60;;;;;;5037044;28;20045;-75
2023/02/10 11:04:11;;;;;;;25.67;13.07;;;230.40;1408.00;;;;;;5040110;28;20041;-77
2023/02/10 11:06:37;;;;;;;26.08;13.30;;;230.40;1382.40;;;;;;5049642;28;20021;-75
2023/02/10 11:09:16;;;;;;;21.45;10.60;;;230.40;1382.40;;;;;;5048270;28;20029;-75
2023/02/10 11:11:43;;;;;;;21.17;11.20;;;230.50;1356.80;;;;;;5045920;28;20131;-75
2023/02/10 11:14:21;;;;;;;22.05;12.02;;;205.60;1382.40;;;;;;5046610;28;20032;-78
2023/02/10 11:16:52;;;;;;;18.83;10.90;;;205.30;1382.40;;;;;;5060607;28;20028;-77
2023/02/10 11:19:22;;;;;;;21.25;11.43;;;205.60;1382.40;;;;;;5045652;28;20032;-77
2023/02/10 11:21:48;;;;;;;24.25;12.32;;;205.40;1382.40;;;;;;5045549;28;20033;-79
2023/02/10 11:24:26;;;;;;;19.23;11.20;;;205.50;1382.40;;;;;;5030795;28;20037;-76
2023/02/10 11:26:59;;;;;;;20.88;11.25;;;230.60;1331.20;;;;;;5030608;28;20103;-76
2023/02/10 11:29:27;;;;;;;23.65;11.93;;;231.10;1331.20;;;;;;5038287;28;20035;-76
2023/02/10 11:31:54;;;;;;;20.58;11.35;;;230.90;1305.60;;;;;;5041588;28;20554;-76
2023/02/10 11:34:26;;;;;;;19.83;11.13;;;256.00;1305.60;;;;;;5047616;28;20028;-76
2023/02/10 11:36:55;;;;;;;20.85;10.82;;;231.00;1305.60;;;;;;5064599;28;20393;-76
2023/02/10 11:39:26;;;;;;;31.40;15.40;;;231.20;1280.00;;;;;;5045024;28;20123;-78
2023/02/10 11:41:53;;;;;;;20.30;10.82;;;256.10;1280.00;;;;;;5020684;28;20037;-76
2023/02/10 11:44:31;;;;;;;25.48;13.73;;;231.20;1280.00;;;;;;5035694;28;20037;-78
2023/02/10 11:47:03;;;;;;;41.53;23.45;;;256.30;1280.00;;;;;;5036130;28;20052;-77
2023/02/10 11:49:33;;;;;;;25.70;14.05;;;256.40;1280.00;;;;;;5040163;28;20041;-76
2023/02/10 11:52:01;;;;;;;29.33;14.18;;;256.40;1254.40;;;;;;5044765;28;20036;-78
2023/02/10 11:54:28;;;;;;;19.38;11.20;;;256.40;1254.40;;;;;;5042578;28;20035;-76
2023/02/10 12:00:10;;;;;;;19.67;11.07;;;231.20;1254.40;;;;;;5061321;28;20093;-77
2023/02/10 12:02:55;;;;;;;21.25;11.93;;;231.10;1254.40;;;;;;5042280;28;20033;-76
2023/02/10 12:05:54;;;;;;;20.73;10.32;;;231.20;1254.40;;;;;;4971712;28;20189;-77
2023/02/10 12:08:38;;;;;;;20.80;11.32;;;256.10;1228.80;;;;;;4987837;28;20424;-76
2023/02/10 12:11:08;;;;;;;16.63;10.25;;;256.30;1203.20;;;;;;4957491;28;20047;-76
2023/02/10 12:13:52;;;;;;;21.55;10.90;;;256.40;1203.20;;;;;;4967150;28;20038;-77
2023/02/10 12:16:26;;;;;;;17.30;10.98;;;256.40;1203.20;;;;;;4971822;28;20051;-76
2023/02/10 12:19:28;;;;;;;19.67;11.32;;;256.40;1203.20;;;;;;4967852;28;20681;-76
2023/02/10 12:21:54;;;;;;;22.75;11.50;;;256.20;1203.20;;;;;;4894221;29;20044;-75
2023/02/10 12:24:40;;;;;;;20.30;10.98;;;231.30;1228.80;;;;;;4879534;29;20055;-75
2023/02/10 12:27:12;;;;;;;18.85;11.05;;;230.90;1254.40;;;;;;4896104;29;20036;-76
2023/02/10 12:30:21;;;;;;;19.58;10.68;;;231.10;1254.40;;;;;;4880332;29;20033;-77
2023/02/10 12:33:04;;;;;;;22.30;11.30;;;231.30;1254.40;;;;;;4838987;29;20536;-76
2023/02/10 12:35:44;;;;;;;21.90;11.38;;;256.10;1228.80;;;;;;4842499;29;20510;-74
2023/02/10 12:38:40;;;;;;;23.05;12.77;;;231.30;1228.80;;;;;;4842773;29;20046;-75
2023/02/10 12:41:39;;;;;;;22.67;12.43;;;256.10;1228.80;;;;;;4843234;29;20058;-77
2023/02/10 12:44:39;;;;;;;21.02;11.65;;;231.30;1228.80;;;;;;4878682;29;20330;-75
2023/02/10 12:47:13;;;;;;;25.98;12.88;;;231.30;1228.80;;;;;;4891648;29;20048;-75
2023/02/10 12:49:45;;;;;;;28.45;13.95;;;231.10;1254.40;;;;;;4887893;29;20055;-76